sensor_id;sensor_type;location;lat;lon;timestamp;temperature;humidity
6930;DHT22;3504;52.616;13.238;2023-08-08T00:04:01;14.50;70.22
6930;DHT22;3504;52.616;13.238;2023-08-08T00:09:01;14.42;70.77
6930;DHT22;3504;52.616;13.238;2023-08-08T00:14:02;14.33;71.00
6930;DHT22;3504;52.616;13.238;2023-08-08T00:19:02;14.24;71.27
6930;DHT22;3504;52.616;13.238;2023-08-08T00:24:03;14.24;71.69
6930;DHT22;3504;52.616;13.238;2023-08-08T00:29:04;14.16;71.56
6930;DHT22;3504;52.616;13.238;2023-08-08T00:34:04;14.10;71.90
6930;DHT22;3504;52.616;13.238;2023-08-08T00:39:05;14.02;72.03
6930;DHT22;3504;52.616;13.238;2023-08-08T00:44:05;14.00;72.15
6930;DHT22;3504;52.616;13.238;2023-08-08T00:49:06;13.96;72.21
6930;DHT22;3504;52.616;13.238;2023-08-08T00:54:07;13.97;72.28
6930;DHT22;3504;52.616;13.238;2023-08-08T00:59:08;13.93;72.22
6930;DHT22;3504;52.616;13.238;2023-08-08T01:04:12;13.92;72.32
6930;DHT22;3504;52.616;13.238;2023-08-08T01:09:23;13.86;72.20
6930;DHT22;3504;52.616;13.238;2023-08-08T01:14:26;13.78;71.82
6930;DHT22;3504;52.616;13.238;2023-08-08T01:19:31;13.71;71.92
6930;DHT22;3504;52.616;13.238;2023-08-08T01:24:33;13.71;71.76
6930;DHT22;3504;52.616;13.238;2023-08-08T01:29:37;13.73;71.63
6930;DHT22;3504;52.616;13.238;2023-08-08T01:34:39;13.73;71.18
6930;DHT22;3504;52.616;13.238;2023-08-08T01:39:40;13.73;70.30
6930;DHT22;3504;52.616;13.238;2023-08-08T01:44:42;13.82;69.97
6930;DHT22;3504;52.616;13.238;2023-08-08T01:49:43;13.83;69.78
6930;DHT22;3504;52.616;13.238;2023-08-08T01:54:44;13.83;69.89
6930;DHT22;3504;52.616;13.238;2023-08-08T01:59:45;13.79;69.36
6930;DHT22;3504;52.616;13.238;2023-08-08T02:04:46;13.85;69.16
6930;DHT22;3504;52.616;13.238;2023-08-08T02:09:46;13.86;69.22
6930;DHT22;3504;52.616;13.238;2023-08-08T02:14:47;13.85;69.33
6930;DHT22;3504;52.616;13.238;2023-08-08T02:19:48;13.87;69.35
6930;DHT22;3504;52.616;13.238;2023-08-08T02:24:48;13.85;69.23
6930;DHT22;3504;52.616;13.238;2023-08-08T02:29:49;13.78;69.51
6930;DHT22;3504;52.616;13.238;2023-08-08T02:34:49;13.76;70.12
6930;DHT22;3504;52.616;13.238;2023-08-08T02:39:50;13.66;70.34
6930;DHT22;3504;52.616;13.238;2023-08-08T02:44:50;13.61;71.19
6930;DHT22;3504;52.616;13.238;2023-08-08T02:49:51;13.52;71.73
6930;DHT22;3504;52.616;13.238;2023-08-08T02:54:52;13.48;72.23
6930;DHT22;3504;52.616;13.238;2023-08-08T02:59:52;13.45;72.72
6930;DHT22;3504;52.616;13.238;2023-08-08T03:04:53;13.39;73.25
6930;DHT22;3504;52.616;13.238;2023-08-08T03:09:57;13.36;73.66
6930;DHT22;3504;52.616;13.238;2023-08-08T03:14:58;13.31;73.94
6930;DHT22;3504;52.616;13.238;2023-08-08T03:19:58;13.28;74.16
6930;DHT22;3504;52.616;13.238;2023-08-08T03:25:00;13.24;74.65
6930;DHT22;3504;52.616;13.238;2023-08-08T03:30:01;13.21;74.94
6930;DHT22;3504;52.616;13.238;2023-08-08T03:35:07;13.24;75.06
6930;DHT22;3504;52.616;13.238;2023-08-08T03:40:10;13.30;75.06
6930;DHT22;3504;52.616;13.238;2023-08-08T03:45:11;13.30;75.18
6930;DHT22;3504;52.616;13.238;2023-08-08T03:50:12;13.31;75.28
6930;DHT22;3504;52.616;13.238;2023-08-08T03:55:12;13.34;75.62
6930;DHT22;3504;52.616;13.238;2023-08-08T04:00:14;13.34;75.56
6930;DHT22;3504;52.616;13.238;2023-08-08T04:05:18;13.36;76.04
6930;DHT22;3504;52.616;13.238;2023-08-08T04:10:18;13.39;75.84
6930;DHT22;3504;52.616;13.238;2023-08-08T04:15:19;13.41;75.88
6930;DHT22;3504;52.616;13.238;2023-08-08T04:20:19;13.41;76.11
6930;DHT22;3504;52.616;13.238;2023-08-08T04:25:20;13.45;76.04
6930;DHT22;3504;52.616;13.238;2023-08-08T04:30:21;13.46;76.31
6930;DHT22;3504;52.616;13.238;2023-08-08T04:35:22;13.55;76.17
6930;DHT22;3504;52.616;13.238;2023-08-08T04:40:22;13.65;76.38
6930;DHT22;3504;52.616;13.238;2023-08-08T04:45:22;13.72;76.17
6930;DHT22;3504;52.616;13.238;2023-08-08T04:50:23;13.78;76.05
6930;DHT22;3504;52.616;13.238;2023-08-08T04:55:24;13.82;75.94
6930;DHT22;3504;52.616;13.238;2023-08-08T05:00:26;13.90;76.21
6930;DHT22;3504;52.616;13.238;2023-08-08T05:05:26;13.90;76.11
6930;DHT22;3504;52.616;13.238;2023-08-08T05:10:27;13.89;75.97
6930;DHT22;3504;52.616;13.238;2023-08-08T05:15:27;14.03;76.21
6930;DHT22;3504;52.616;13.238;2023-08-08T05:20:28;14.09;76.04
6930;DHT22;3504;52.616;13.238;2023-08-08T05:25:28;14.12;75.69
6930;DHT22;3504;52.616;13.238;2023-08-08T05:30:29;14.18;75.79
6930;DHT22;3504;52.616;13.238;2023-08-08T05:35:30;14.45;75.69
6930;DHT22;3504;52.616;13.238;2023-08-08T05:40:34;14.75;75.29
6930;DHT22;3504;52.616;13.238;2023-08-08T05:45:35;14.98;74.31
6930;DHT22;3504;52.616;13.238;2023-08-08T05:50:35;15.00;74.14
6930;DHT22;3504;52.616;13.238;2023-08-08T05:55:41;14.88;73.94
6930;DHT22;3504;52.616;13.238;2023-08-08T06:00:43;14.91;74.27
6930;DHT22;3504;52.616;13.238;2023-08-08T06:05:43;15.03;73.99
6930;DHT22;3504;52.616;13.238;2023-08-08T06:10:44;15.39;73.71
6930;DHT22;3504;52.616;13.238;2023-08-08T06:15:44;15.39;73.26
6930;DHT22;3504;52.616;13.238;2023-08-08T06:20:44;15.47;73.26
6930;DHT22;3504;52.616;13.238;2023-08-08T06:25:48;15.53;73.46
6930;DHT22;3504;52.616;13.238;2023-08-08T06:30:48;15.90;72.46
6930;DHT22;3504;52.616;13.238;2023-08-08T06:35:49;15.88;72.42
6930;DHT22;3504;52.616;13.238;2023-08-08T06:40:49;15.84;72.67
6930;DHT22;3504;52.616;13.238;2023-08-08T06:45:50;15.77;73.14
6930;DHT22;3504;52.616;13.238;2023-08-08T06:50:51;15.73;73.19
6930;DHT22;3504;52.616;13.238;2023-08-08T06:55:51;15.73;72.93
6930;DHT22;3504;52.616;13.238;2023-08-08T07:00:52;15.92;73.65
6930;DHT22;3504;52.616;13.238;2023-08-08T07:05:52;15.97;72.02
6930;DHT22;3504;52.616;13.238;2023-08-08T07:10:53;16.19;72.08
6930;DHT22;3504;52.616;13.238;2023-08-08T07:15:53;16.55;71.33
6930;DHT22;3504;52.616;13.238;2023-08-08T07:20:54;16.73;70.75
6930;DHT22;3504;52.616;13.238;2023-08-08T07:25:56;16.96;70.01
6930;DHT22;3504;52.616;13.238;2023-08-08T07:31:00;17.13;69.36
6930;DHT22;3504;52.616;13.238;2023-08-08T07:36:00;17.25;69.42
6930;DHT22;3504;52.616;13.238;2023-08-08T07:41:01;17.64;67.33
6930;DHT22;3504;52.616;13.238;2023-08-08T07:46:01;17.79;67.42
6930;DHT22;3504;52.616;13.238;2023-08-08T07:51:02;17.85;67.05
6930;DHT22;3504;52.616;13.238;2023-08-08T07:56:04;17.59;67.03
6930;DHT22;3504;52.616;13.238;2023-08-08T08:01:04;17.78;67.64
6930;DHT22;3504;52.616;13.238;2023-08-08T08:06:06;18.18;66.63
6930;DHT22;3504;52.616;13.238;2023-08-08T08:11:07;18.53;64.96
6930;DHT22;3504;52.616;13.238;2023-08-08T08:16:07;18.36;65.04
6930;DHT22;3504;52.616;13.238;2023-08-08T08:21:08;18.26;66.03
6930;DHT22;3504;52.616;13.238;2023-08-08T08:26:08;18.07;65.18
6930;DHT22;3504;52.616;13.238;2023-08-08T08:31:09;18.09;66.35
6930;DHT22;3504;52.616;13.238;2023-08-08T08:36:09;18.23;64.38
6930;DHT22;3504;52.616;13.238;2023-08-08T08:41:11;18.06;64.73
6930;DHT22;3504;52.616;13.238;2023-08-08T08:46:20;17.92;64.81
6930;DHT22;3504;52.616;13.238;2023-08-08T08:51:21;18.37;65.45
6930;DHT22;3504;52.616;13.238;2023-08-08T08:56:21;18.95;63.08
6930;DHT22;3504;52.616;13.238;2023-08-08T09:01:23;19.45;62.93
6930;DHT22;3504;52.616;13.238;2023-08-08T09:06:24;19.91;60.51
6930;DHT22;3504;52.616;13.238;2023-08-08T09:11:25;20.01;59.35
6930;DHT22;3504;52.616;13.238;2023-08-08T09:16:25;19.69;59.28
6930;DHT22;3504;52.616;13.238;2023-08-08T09:21:27;19.51;60.80
6930;DHT22;3504;52.616;13.238;2023-08-08T09:26:28;19.25;60.93
6930;DHT22;3504;52.616;13.238;2023-08-08T09:31:29;19.16;59.22
6930;DHT22;3504;52.616;13.238;2023-08-08T09:36:30;19.77;60.55
6930;DHT22;3504;52.616;13.238;2023-08-08T09:41:31;19.92;57.61
6930;DHT22;3504;52.616;13.238;2023-08-08T09:46:31;19.60;58.53
6930;DHT22;3504;52.616;13.238;2023-08-08T09:51:33;19.19;59.59
6930;DHT22;3504;52.616;13.238;2023-08-08T09:56:34;18.92;61.51
6930;DHT22;3504;52.616;13.238;2023-08-08T10:01:35;20.05;61.21
6930;DHT22;3504;52.616;13.238;2023-08-08T10:06:36;20.79;57.06
6930;DHT22;3504;52.616;13.238;2023-08-08T10:11:36;21.31;56.23
6930;DHT22;3504;52.616;13.238;2023-08-08T10:16:37;21.96;55.76
6930;DHT22;3504;52.616;13.238;2023-08-08T10:21:44;22.43;53.89
6930;DHT22;3504;52.616;13.238;2023-08-08T10:26:57;22.57;52.35
6930;DHT22;3504;52.616;13.238;2023-08-08T10:31:59;21.75;52.17
6930;DHT22;3504;52.616;13.238;2023-08-08T10:37:13;20.86;53.53
6930;DHT22;3504;52.616;13.238;2023-08-08T10:42:19;19.54;64.81
6930;DHT22;3504;52.616;13.238;2023-08-08T10:47:36;18.87;67.08
6930;DHT22;3504;52.616;13.238;2023-08-08T10:58:19;19.15;67.82
6930;DHT22;3504;52.616;13.238;2023-08-08T11:03:20;19.23;64.90
6930;DHT22;3504;52.616;13.238;2023-08-08T11:08:21;19.59;62.08
6930;DHT22;3504;52.616;13.238;2023-08-08T11:13:26;19.33;60.98
6930;DHT22;3504;52.616;13.238;2023-08-08T11:18:26;19.39;62.56
6930;DHT22;3504;52.616;13.238;2023-08-08T11:23:28;19.77;60.48
6930;DHT22;3504;52.616;13.238;2023-08-08T11:28:28;19.84;58.17
6930;DHT22;3504;52.616;13.238;2023-08-08T11:33:29;20.63;58.04
6930;DHT22;3504;52.616;13.238;2023-08-08T11:38:29;20.77;55.97
6930;DHT22;3504;52.616;13.238;2023-08-08T11:43:30;20.66;52.67
6930;DHT22;3504;52.616;13.238;2023-08-08T11:48:33;20.77;54.58
6930;DHT22;3504;52.616;13.238;2023-08-08T11:53:34;21.10;54.01
6930;DHT22;3504;52.616;13.238;2023-08-08T11:58:36;21.26;54.98
6930;DHT22;3504;52.616;13.238;2023-08-08T12:03:36;21.64;54.06
6930;DHT22;3504;52.616;13.238;2023-08-08T12:08:41;21.71;54.44
6930;DHT22;3504;52.616;13.238;2023-08-08T12:13:44;21.59;53.23
6930;DHT22;3504;52.616;13.238;2023-08-08T12:18:44;21.40;53.34
6930;DHT22;3504;52.616;13.238;2023-08-08T12:23:45;21.91;52.69
6930;DHT22;3504;52.616;13.238;2023-08-08T12:28:46;22.23;49.73
6930;DHT22;3504;52.616;13.238;2023-08-08T12:33:46;22.08;49.52
6930;DHT22;3504;52.616;13.238;2023-08-08T12:38:49;22.32;50.67
6930;DHT22;3504;52.616;13.238;2023-08-08T12:43:49;22.20;53.44
6930;DHT22;3504;52.616;13.238;2023-08-08T12:48:50;21.18;51.19
6930;DHT22;3504;52.616;13.238;2023-08-08T12:53:50;20.01;54.55
6930;DHT22;3504;52.616;13.238;2023-08-08T12:58:51;19.23;60.09
6930;DHT22;3504;52.616;13.238;2023-08-08T13:03:51;19.35;63.37
6930;DHT22;3504;52.616;13.238;2023-08-08T13:08:52;20.01;62.87
6930;DHT22;3504;52.616;13.238;2023-08-08T13:13:53;20.35;60.18
6930;DHT22;3504;52.616;13.238;2023-08-08T13:18:53;20.07;59.46
6930;DHT22;3504;52.616;13.238;2023-08-08T13:23:54;19.85;62.17
6930;DHT22;3504;52.616;13.238;2023-08-08T13:28:54;19.66;63.23
6930;DHT22;3504;52.616;13.238;2023-08-08T13:33:55;19.54;64.80
6930;DHT22;3504;52.616;13.238;2023-08-08T13:38:55;19.40;64.80
6930;DHT22;3504;52.616;13.238;2023-08-08T13:43:56;19.36;66.89
6930;DHT22;3504;52.616;13.238;2023-08-08T13:48:56;19.36;61.10
6930;DHT22;3504;52.616;13.238;2023-08-08T13:53:57;19.57;59.40
6930;DHT22;3504;52.616;13.238;2023-08-08T13:58:57;19.54;59.80
6930;DHT22;3504;52.616;13.238;2023-08-08T14:03:58;19.80;57.81
6930;DHT22;3504;52.616;13.238;2023-08-08T14:09:01;20.22;57.12
6930;DHT22;3504;52.616;13.238;2023-08-08T14:14:02;20.41;54.32
6930;DHT22;3504;52.616;13.238;2023-08-08T14:19:03;20.51;56.01
6930;DHT22;3504;52.616;13.238;2023-08-08T14:24:06;20.69;55.90
6930;DHT22;3504;52.616;13.238;2023-08-08T14:29:07;20.76;53.93
6930;DHT22;3504;52.616;13.238;2023-08-08T14:34:08;20.62;52.89
6930;DHT22;3504;52.616;13.238;2023-08-08T14:39:08;20.12;56.08
6930;DHT22;3504;52.616;13.238;2023-08-08T14:44:09;20.10;57.24
6930;DHT22;3504;52.616;13.238;2023-08-08T14:49:10;19.71;55.74
6930;DHT22;3504;52.616;13.238;2023-08-08T14:54:10;19.12;57.62
6930;DHT22;3504;52.616;13.238;2023-08-08T14:59:11;18.72;59.54
6930;DHT22;3504;52.616;13.238;2023-08-08T15:04:11;18.65;60.71
6930;DHT22;3504;52.616;13.238;2023-08-08T15:09:12;18.60;60.78
6930;DHT22;3504;52.616;13.238;2023-08-08T15:14:13;18.50;61.89
6930;DHT22;3504;52.616;13.238;2023-08-08T15:19:14;18.37;65.51
6930;DHT22;3504;52.616;13.238;2023-08-08T15:24:15;17.64;71.35
6930;DHT22;3504;52.616;13.238;2023-08-08T15:29:16;17.23;73.37
6930;DHT22;3504;52.616;13.238;2023-08-08T15:34:16;17.20;73.73
6930;DHT22;3504;52.616;13.238;2023-08-08T15:39:19;17.03;74.69
6930;DHT22;3504;52.616;13.238;2023-08-08T15:44:21;16.89;75.55
6930;DHT22;3504;52.616;13.238;2023-08-08T15:49:21;16.87;75.69
6930;DHT22;3504;52.616;13.238;2023-08-08T15:54:23;17.08;75.51
6930;DHT22;3504;52.616;13.238;2023-08-08T15:59:24;17.18;75.70
6930;DHT22;3504;52.616;13.238;2023-08-08T16:04:24;17.13;75.56
6930;DHT22;3504;52.616;13.238;2023-08-08T16:09:25;17.21;75.47
6930;DHT22;3504;52.616;13.238;2023-08-08T16:14:26;17.00;76.08
6930;DHT22;3504;52.616;13.238;2023-08-08T16:19:27;16.63;76.63
6930;DHT22;3504;52.616;13.238;2023-08-08T16:24:27;16.15;78.23
6930;DHT22;3504;52.616;13.238;2023-08-08T16:29:28;15.81;79.40
6930;DHT22;3504;52.616;13.238;2023-08-08T16:34:29;15.61;79.45
6930;DHT22;3504;52.616;13.238;2023-08-08T16:39:31;15.63;80.01
6930;DHT22;3504;52.616;13.238;2023-08-08T16:44:31;15.61;81.21
6930;DHT22;3504;52.616;13.238;2023-08-08T16:49:32;15.73;80.40
6930;DHT22;3504;52.616;13.238;2023-08-08T16:54:33;15.80;80.36
6930;DHT22;3504;52.616;13.238;2023-08-08T16:59:34;15.98;80.55
6930;DHT22;3504;52.616;13.238;2023-08-08T17:04:34;16.04;79.50
6930;DHT22;3504;52.616;13.238;2023-08-08T17:09:35;16.01;79.56
6930;DHT22;3504;52.616;13.238;2023-08-08T17:14:35;15.87;79.71
6930;DHT22;3504;52.616;13.238;2023-08-08T17:19:36;15.77;80.18
6930;DHT22;3504;52.616;13.238;2023-08-08T17:24:36;15.73;80.02
6930;DHT22;3504;52.616;13.238;2023-08-08T17:29:37;15.59;79.92
6930;DHT22;3504;52.616;13.238;2023-08-08T17:34:37;15.61;80.56
6930;DHT22;3504;52.616;13.238;2023-08-08T17:39:38;15.56;80.45
6930;DHT22;3504;52.616;13.238;2023-08-08T17:44:38;15.57;80.74
6930;DHT22;3504;52.616;13.238;2023-08-08T17:49:39;15.60;80.76
6930;DHT22;3504;52.616;13.238;2023-08-08T17:54:39;15.61;80.79
6930;DHT22;3504;52.616;13.238;2023-08-08T17:59:40;15.61;80.77
6930;DHT22;3504;52.616;13.238;2023-08-08T18:04:40;15.56;80.86
6930;DHT22;3504;52.616;13.238;2023-08-08T18:09:41;15.53;81.00
6930;DHT22;3504;52.616;13.238;2023-08-08T18:14:45;15.59;80.69
6930;DHT22;3504;52.616;13.238;2023-08-08T18:19:45;15.56;80.39
6930;DHT22;3504;52.616;13.238;2023-08-08T18:24:46;15.50;80.22
6930;DHT22;3504;52.616;13.238;2023-08-08T18:29:47;15.44;80.48
6930;DHT22;3504;52.616;13.238;2023-08-08T18:34:47;15.37;80.96
6930;DHT22;3504;52.616;13.238;2023-08-08T18:39:48;15.37;80.61
6930;DHT22;3504;52.616;13.238;2023-08-08T18:44:48;15.36;80.68
6930;DHT22;3504;52.616;13.238;2023-08-08T18:49:49;15.35;80.72
6930;DHT22;3504;52.616;13.238;2023-08-08T18:54:49;15.39;80.51
6930;DHT22;3504;52.616;13.238;2023-08-08T18:59:50;15.40;80.97
6930;DHT22;3504;52.616;13.238;2023-08-08T19:04:50;15.37;81.17
6930;DHT22;3504;52.616;13.238;2023-08-08T19:09:51;15.36;80.67
6930;DHT22;3504;52.616;13.238;2023-08-08T19:14:51;15.35;80.50
6930;DHT22;3504;52.616;13.238;2023-08-08T19:19:52;15.26;80.36
6930;DHT22;3504;52.616;13.238;2023-08-08T19:24:53;15.20;80.52
6930;DHT22;3504;52.616;13.238;2023-08-08T19:29:53;15.18;80.45
6930;DHT22;3504;52.616;13.238;2023-08-08T19:34:54;15.12;80.32
6930;DHT22;3504;52.616;13.238;2023-08-08T19:39:54;15.08;80.79
6930;DHT22;3504;52.616;13.238;2023-08-08T19:44:55;15.08;80.73
6930;DHT22;3504;52.616;13.238;2023-08-08T19:49:55;15.02;80.91
6930;DHT22;3504;52.616;13.238;2023-08-08T19:54:56;15.00;81.50
6930;DHT22;3504;52.616;13.238;2023-08-08T19:59:56;14.92;80.75
6930;DHT22;3504;52.616;13.238;2023-08-08T20:04:57;14.84;80.63
6930;DHT22;3504;52.616;13.238;2023-08-08T20:09:57;14.81;80.96
6930;DHT22;3504;52.616;13.238;2023-08-08T20:14:58;14.79;80.68
6930;DHT22;3504;52.616;13.238;2023-08-08T20:19:58;14.71;81.32
6930;DHT22;3504;52.616;13.238;2023-08-08T20:24:59;14.69;81.41
6930;DHT22;3504;52.616;13.238;2023-08-08T20:30:01;14.64;81.48
6930;DHT22;3504;52.616;13.238;2023-08-08T20:35:01;14.64;81.79
6930;DHT22;3504;52.616;13.238;2023-08-08T20:40:02;14.65;82.00
6930;DHT22;3504;52.616;13.238;2023-08-08T20:45:04;14.65;81.93
6930;DHT22;3504;52.616;13.238;2023-08-08T20:50:05;14.69;81.75
6930;DHT22;3504;52.616;13.238;2023-08-08T20:55:06;14.69;83.50
6930;DHT22;3504;52.616;13.238;2023-08-08T21:00:07;14.34;79.55
6930;DHT22;3504;52.616;13.238;2023-08-08T21:05:09;14.18;81.11
6930;DHT22;3504;52.616;13.238;2023-08-08T21:10:09;13.95;81.47
6930;DHT22;3504;52.616;13.238;2023-08-08T21:15:10;13.69;81.39
6930;DHT22;3504;52.616;13.238;2023-08-08T21:20:12;13.79;81.57
6930;DHT22;3504;52.616;13.238;2023-08-08T21:25:13;13.81;82.06
6930;DHT22;3504;52.616;13.238;2023-08-08T21:30:14;13.85;81.92
6930;DHT22;3504;52.616;13.238;2023-08-08T21:35:14;13.85;81.63
6930;DHT22;3504;52.616;13.238;2023-08-08T21:40:15;13.79;81.41
6930;DHT22;3504;52.616;13.238;2023-08-08T21:45:15;13.67;82.08
6930;DHT22;3504;52.616;13.238;2023-08-08T21:50:16;13.66;82.20
6930;DHT22;3504;52.616;13.238;2023-08-08T21:55:17;13.66;82.01
6930;DHT22;3504;52.616;13.238;2023-08-08T22:00:17;13.62;82.12
6930;DHT22;3504;52.616;13.238;2023-08-08T22:05:20;13.59;82.40
6930;DHT22;3504;52.616;13.238;2023-08-08T22:10:20;13.58;82.09
6930;DHT22;3504;52.616;13.238;2023-08-08T22:15:21;13.51;82.03
6930;DHT22;3504;52.616;13.238;2023-08-08T22:20:22;13.48;82.30
6930;DHT22;3504;52.616;13.238;2023-08-08T22:25:22;13.46;82.09
6930;DHT22;3504;52.616;13.238;2023-08-08T22:30:23;13.48;82.05
6930;DHT22;3504;52.616;13.238;2023-08-08T22:35:24;13.44;82.11
6930;DHT22;3504;52.616;13.238;2023-08-08T22:40:24;13.39;81.93
6930;DHT22;3504;52.616;13.238;2023-08-08T22:45:25;13.36;81.73
6930;DHT22;3504;52.616;13.238;2023-08-08T22:50:27;13.30;81.69
6930;DHT22;3504;52.616;13.238;2023-08-08T22:55:28;13.22;81.71
6930;DHT22;3504;52.616;13.238;2023-08-08T23:00:29;13.15;81.59
6930;DHT22;3504;52.616;13.238;2023-08-08T23:05:30;13.10;81.86
6930;DHT22;3504;52.616;13.238;2023-08-08T23:10:31;13.06;82.06
6930;DHT22;3504;52.616;13.238;2023-08-08T23:15:31;13.03;81.93
6930;DHT22;3504;52.616;13.238;2023-08-08T23:20:31;13.00;82.18
6930;DHT22;3504;52.616;13.238;2023-08-08T23:25:34;12.91;82.38
6930;DHT22;3504;52.616;13.238;2023-08-08T23:30:34;12.91;82.61
6930;DHT22;3504;52.616;13.238;2023-08-08T23:35:35;12.88;82.85
6930;DHT22;3504;52.616;13.238;2023-08-08T23:40:35;12.87;82.90
6930;DHT22;3504;52.616;13.238;2023-08-08T23:45:35;12.83;82.75
6930;DHT22;3504;52.616;13.238;2023-08-08T23:50:36;12.80;82.30
6930;DHT22;3504;52.616;13.238;2023-08-08T23:55:36;12.73;82.32
